sensor_id;sensor_type;location;lat;lon;timestamp;pressure;altitude;pressure_sealevel;temperature;humidity
47522;BME280;32291;52.010;4.446;2023-04-23T00:00:40;78300.38;;;-144.67;100.00
47522;BME280;32291;52.010;4.446;2023-04-23T00:01:42;78308.94;;;-144.67;100.00
47522;BME280;32291;52.010;4.446;2023-04-23T00:02:47;78313.22;;;-144.67;100.00
47522;BME280;32291;52.010;4.446;2023-04-23T00:03:50;78308.94;;;-144.67;100.00
47522;BME280;32291;52.010;4.446;2023-04-23T00:04:53;78308.94;;;-144.67;100.00
47522;BME280;32291;52.010;4.446;2023-04-23T00:06:03;78304.66;;;-144.67;100.00
47522;BME280;32291;52.010;4.446;2023-04-23T00:07:06;78302.53;;;-144.67;100.00
47522;BME280;32291;52.010;4.446;2023-04-23T00:08:10;78298.22;;;-144.67;100.00
47522;BME280;32291;52.010;4.446;2023-04-23T00:09:14;78296.09;;;-144.67;100.00
47522;BME280;32291;52.010;4.446;2023-04-23T00:10:17;78296.09;;;-144.67;100.00
47522;BME280;32291;52.010;4.446;2023-04-23T00:11:19;78291.81;;;-144.67;100.00
47522;BME280;32291;52.010;4.446;2023-04-23T00:12:22;78287.53;;;-144.67;100.00
47522;BME280;32291;52.010;4.446;2023-04-23T00:13:24;78287.53;;;-144.67;100.00
47522;BME280;32291;52.010;4.446;2023-04-23T00:14:26;78291.81;;;-144.67;100.00
47522;BME280;32291;52.010;4.446;2023-04-23T00:15:28;78289.66;;;-144.67;100.00
47522;BME280;32291;52.010;4.446;2023-04-23T00:16:31;78291.81;;;-144.67;100.00
47522;BME280;32291;52.010;4.446;2023-04-23T00:17:32;78285.38;;;-144.67;100.00
47522;BME280;32291;52.010;4.446;2023-04-23T00:18:34;78278.97;;;-144.67;100.00
47522;BME280;32291;52.010;4.446;2023-04-23T00:19:36;78276.81;;;-144.67;100.00
47522;BME280;32291;52.010;4.446;2023-04-23T00:20:38;78266.13;;;-144.67;100.00
47522;BME280;32291;52.010;4.446;2023-04-23T00:21:40;78268.25;;;-144.67;100.00
47522;BME280;32291;52.010;4.446;2023-04-23T00:22:44;78253.28;;;-144.67;100.00
47522;BME280;32291;52.010;4.446;2023-04-23T00:23:46;78244.72;;;-144.67;100.00
47522;BME280;32291;52.010;4.446;2023-04-23T00:24:48;78253.28;;;-144.67;100.00
47522;BME280;32291;52.010;4.446;2023-04-23T00:25:50;78238.28;;;-144.67;100.00
47522;BME280;32291;52.010;4.446;2023-04-23T00:26:52;78240.44;;;-144.67;100.00
47522;BME280;32291;52.010;4.446;2023-04-23T00:27:54;78236.16;;;-144.67;100.00
47522;BME280;32291;52.010;4.446;2023-04-23T00:28:56;78229.72;;;-144.67;100.00
47522;BME280;32291;52.010;4.446;2023-04-23T00:29:57;78236.16;;;-144.67;100.00
47522;BME280;32291;52.010;4.446;2023-04-23T00:30:59;78234.00;;;-144.67;100.00
47522;BME280;32291;52.010;4.446;2023-04-23T00:32:01;78231.88;;;-144.67;100.00
47522;BME280;32291;52.010;4.446;2023-04-23T00:33:03;78240.44;;;-144.67;100.00
47522;BME280;32291;52.010;4.446;2023-04-23T00:34:05;78229.72;;;-144.67;100.00
47522;BME280;32291;52.010;4.446;2023-04-23T00:35:07;78242.56;;;-144.67;100.00
47522;BME280;32291;52.010;4.446;2023-04-23T00:36:10;78240.44;;;-144.67;100.00
47522;BME280;32291;52.010;4.446;2023-04-23T00:37:11;78244.72;;;-144.67;100.00
47522;BME280;32291;52.010;4.446;2023-04-23T00:38:13;78246.84;;;-144.67;100.00
47522;BME280;32291;52.010;4.446;2023-04-23T00:39:16;78255.41;;;-144.67;100.00
47522;BME280;32291;52.010;4.446;2023-04-23T00:40:18;78249.00;;;-144.67;100.00
47522;BME280;32291;52.010;4.446;2023-04-23T00:41:22;78261.84;;;-144.67;100.00
47522;BME280;32291;52.010;4.446;2023-04-23T00:42:27;78255.41;;;-144.67;100.00
47522;BME280;32291;52.010;4.446;2023-04-23T00:43:30;78263.97;;;-144.67;100.00
47522;BME280;32291;52.010;4.446;2023-04-23T00:44:32;78272.53;;;-144.67;100.00
47522;BME280;32291;52.010;4.446;2023-04-23T00:45:33;78272.53;;;-144.67;100.00
47522;BME280;32291;52.010;4.446;2023-04-23T00:46:36;78261.84;;;-144.67;100.00
47522;BME280;32291;52.010;4.446;2023-04-23T00:47:39;78274.69;;;-144.67;100.00
47522;BME280;32291;52.010;4.446;2023-04-23T00:48:42;78274.69;;;-144.67;100.00
47522;BME280;32291;52.010;4.446;2023-04-23T00:49:45;78266.13;;;-144.67;100.00
47522;BME280;32291;52.010;4.446;2023-04-23T00:50:47;78274.69;;;-144.67;100.00
47522;BME280;32291;52.010;4.446;2023-04-23T00:51:48;78261.84;;;-144.67;100.00
47522;BME280;32291;52.010;4.446;2023-04-23T00:52:50;78257.56;;;-144.67;100.00
47522;BME280;32291;52.010;4.446;2023-04-23T00:53:52;78255.41;;;-144.67;100.00
47522;BME280;32291;52.010;4.446;2023-04-23T00:54:54;78253.28;;;-144.67;100.00
47522;BME280;32291;52.010;4.446;2023-04-23T00:55:57;78249.00;;;-144.67;100.00
47522;BME280;32291;52.010;4.446;2023-04-23T00:57:00;78242.56;;;-144.67;100.00
47522;BME280;32291;52.010;4.446;2023-04-23T00:58:03;78238.28;;;-144.67;100.00
47522;BME280;32291;52.010;4.446;2023-04-23T00:59:04;78231.88;;;-144.67;100.00
47522;BME280;32291;52.010;4.446;2023-04-23T01:00:07;78231.88;;;-144.67;100.00
47522;BME280;32291;52.010;4.446;2023-04-23T01:01:09;78225.44;;;-144.67;100.00
47522;BME280;32291;52.010;4.446;2023-04-23T01:02:13;78223.31;;;-144.67;100.00
47522;BME280;32291;52.010;4.446;2023-04-23T01:03:16;78219.03;;;-144.67;100.00
47522;BME280;32291;52.010;4.446;2023-04-23T01:04:23;78212.59;;;-144.67;100.00
47522;BME280;32291;52.010;4.446;2023-04-23T01:05:29;78197.59;;;-144.67;100.00
47522;BME280;32291;52.010;4.446;2023-04-23T01:06:31;78197.59;;;-144.67;100.00
47522;BME280;32291;52.010;4.446;2023-04-23T01:07:34;78191.19;;;-144.67;100.00
47522;BME280;32291;52.010;4.446;2023-04-23T01:08:38;78193.31;;;-144.67;100.00
47522;BME280;32291;52.010;4.446;2023-04-23T01:09:42;78193.31;;;-144.67;100.00
47522;BME280;32291;52.010;4.446;2023-04-23T01:10:45;78186.91;;;-144.67;100.00
47522;BME280;32291;52.010;4.446;2023-04-23T01:11:48;78174.06;;;-144.67;100.00
47522;BME280;32291;52.010;4.446;2023-04-23T01:12:51;78176.19;;;-144.67;100.00
47522;BME280;32291;52.010;4.446;2023-04-23T01:13:54;78176.19;;;-144.67;100.00
47522;BME280;32291;52.010;4.446;2023-04-23T01:14:57;78167.63;;;-144.67;100.00
47522;BME280;32291;52.010;4.446;2023-04-23T01:15:59;78167.63;;;-144.67;100.00
47522;BME280;32291;52.010;4.446;2023-04-23T01:17:01;78163.34;;;-144.67;100.00
47522;BME280;32291;52.010;4.446;2023-04-23T01:18:03;78163.34;;;-144.67;100.00
47522;BME280;32291;52.010;4.446;2023-04-23T01:19:10;78165.50;;;-144.67;100.00
47522;BME280;32291;52.010;4.446;2023-04-23T01:20:12;78163.34;;;-144.67;100.00
47522;BME280;32291;52.010;4.446;2023-04-23T01:21:15;78154.78;;;-144.67;100.00
47522;BME280;32291;52.010;4.446;2023-04-23T01:22:18;78154.78;;;-144.67;100.00
47522;BME280;32291;52.010;4.446;2023-04-23T01:23:20;78150.50;;;-144.67;100.00
47522;BME280;32291;52.010;4.446;2023-04-23T01:24:22;78146.22;;;-144.67;100.00
47522;BME280;32291;52.010;4.446;2023-04-23T01:25:25;78139.81;;;-144.67;100.00
47522;BME280;32291;52.010;4.446;2023-04-23T01:26:27;78137.66;;;-144.67;100.00
47522;BME280;32291;52.010;4.446;2023-04-23T01:27:28;78137.66;;;-144.67;100.00
47522;BME280;32291;52.010;4.446;2023-04-23T01:28:31;78133.38;;;-144.67;100.00
47522;BME280;32291;52.010;4.446;2023-04-23T01:29:33;78133.38;;;-144.67;100.00
47522;BME280;32291;52.010;4.446;2023-04-23T01:30:36;78124.81;;;-144.67;100.00
47522;BME280;32291;52.010;4.446;2023-04-23T01:31:39;78124.81;;;-144.67;100.00
47522;BME280;32291;52.010;4.446;2023-04-23T01:32:43;78116.25;;;-144.67;100.00
47522;BME280;32291;52.010;4.446;2023-04-23T01:33:48;78126.97;;;-144.67;100.00
47522;BME280;32291;52.010;4.446;2023-04-23T01:34:53;78122.69;;;-144.67;100.00
47522;BME280;32291;52.010;4.446;2023-04-23T01:35:57;78129.09;;;-144.67;100.00
47522;BME280;32291;52.010;4.446;2023-04-23T01:37:01;78129.09;;;-144.67;100.00
47522;BME280;32291;52.010;4.446;2023-04-23T01:38:06;78126.97;;;-144.67;100.00
47522;BME280;32291;52.010;4.446;2023-04-23T01:39:09;78126.97;;;-144.67;100.00
47522;BME280;32291;52.010;4.446;2023-04-23T01:40:11;78116.25;;;-144.67;100.00
47522;BME280;32291;52.010;4.446;2023-04-23T01:41:13;78122.69;;;-144.67;100.00
47522;BME280;32291;52.010;4.446;2023-04-23T01:42:16;78116.25;;;-144.67;100.00
47522;BME280;32291;52.010;4.446;2023-04-23T01:43:19;78124.81;;;-144.67;100.00
47522;BME280;32291;52.010;4.446;2023-04-23T01:44:21;78111.97;;;-144.67;100.00
47522;BME280;32291;52.010;4.446;2023-04-23T01:45:23;78107.69;;;-144.67;100.00
47522;BME280;32291;52.010;4.446;2023-04-23T01:46:25;78118.41;;;-144.67;100.00
47522;BME280;32291;52.010;4.446;2023-04-23T01:47:27;78116.25;;;-144.67;100.00
47522;BME280;32291;52.010;4.446;2023-04-23T01:48:29;78101.28;;;-144.67;100.00
47522;BME280;32291;52.010;4.446;2023-04-23T01:49:31;78107.69;;;-144.67;100.00
47522;BME280;32291;52.010;4.446;2023-04-23T01:50:33;78099.13;;;-144.67;100.00
47522;BME280;32291;52.010;4.446;2023-04-23T01:51:35;78111.97;;;-144.67;100.00
47522;BME280;32291;52.010;4.446;2023-04-23T01:52:37;78109.84;;;-144.67;100.00
47522;BME280;32291;52.010;4.446;2023-04-23T01:53:39;78103.41;;;-144.67;100.00
47522;BME280;32291;52.010;4.446;2023-04-23T01:54:41;78105.56;;;-144.67;100.00
47522;BME280;32291;52.010;4.446;2023-04-23T01:55:46;78107.69;;;-144.67;100.00
47522;BME280;32291;52.010;4.446;2023-04-23T01:56:48;78111.97;;;-144.67;100.00
47522;BME280;32291;52.010;4.446;2023-04-23T01:57:51;78107.69;;;-144.67;100.00
47522;BME280;32291;52.010;4.446;2023-04-23T01:58:53;78101.28;;;-144.67;100.00
47522;BME280;32291;52.010;4.446;2023-04-23T02:01:08;78099.13;;;-144.67;100.00
47522;BME280;32291;52.010;4.446;2023-04-23T02:02:10;78109.84;;;-144.67;100.00
47522;BME280;32291;52.010;4.446;2023-04-23T02:03:14;78094.84;;;-144.67;100.00
47522;BME280;32291;52.010;4.446;2023-04-23T02:04:16;78090.56;;;-144.67;100.00
47522;BME280;32291;52.010;4.446;2023-04-23T02:05:20;78092.72;;;-144.67;100.00
47522;BME280;32291;52.010;4.446;2023-04-23T02:06:22;78082.00;;;-144.67;100.00
47522;BME280;32291;52.010;4.446;2023-04-23T02:07:23;78086.28;;;-144.67;100.00
47522;BME280;32291;52.010;4.446;2023-04-23T02:08:27;78077.72;;;-144.67;100.00
47522;BME280;32291;52.010;4.446;2023-04-23T02:09:28;78075.59;;;-144.67;100.00
47522;BME280;32291;52.010;4.446;2023-04-23T02:10:31;78073.44;;;-144.67;100.00
47522;BME280;32291;52.010;4.446;2023-04-23T02:11:33;78069.16;;;-144.67;100.00
47522;BME280;32291;52.010;4.446;2023-04-23T02:12:36;78069.16;;;-144.67;100.00
47522;BME280;32291;52.010;4.446;2023-04-23T02:13:38;78069.16;;;-144.67;100.00
47522;BME280;32291;52.010;4.446;2023-04-23T02:14:40;78062.72;;;-144.67;100.00
47522;BME280;32291;52.010;4.446;2023-04-23T02:15:41;78060.59;;;-144.67;100.00
47522;BME280;32291;52.010;4.446;2023-04-23T02:16:43;78060.59;;;-144.67;100.00
47522;BME280;32291;52.010;4.446;2023-04-23T02:17:46;78052.03;;;-144.67;100.00
47522;BME280;32291;52.010;4.446;2023-04-23T02:18:51;78052.03;;;-144.67;100.00
47522;BME280;32291;52.010;4.446;2023-04-23T02:19:52;78052.03;;;-144.67;100.00
47522;BME280;32291;52.010;4.446;2023-04-23T02:20:56;78052.03;;;-144.67;100.00
47522;BME280;32291;52.010;4.446;2023-04-23T02:22:00;78052.03;;;-144.67;100.00
47522;BME280;32291;52.010;4.446;2023-04-23T02:23:02;78047.75;;;-144.67;100.00
47522;BME280;32291;52.010;4.446;2023-04-23T02:24:04;78043.47;;;-144.67;100.00
47522;BME280;32291;52.010;4.446;2023-04-23T02:25:07;78037.03;;;-144.67;100.00
47522;BME280;32291;52.010;4.446;2023-04-23T02:26:08;78047.75;;;-144.67;100.00
47522;BME280;32291;52.010;4.446;2023-04-23T02:27:10;78043.47;;;-144.67;100.00
47522;BME280;32291;52.010;4.446;2023-04-23T02:28:12;78045.59;;;-144.67;100.00
47522;BME280;32291;52.010;4.446;2023-04-23T02:29:14;78039.19;;;-144.67;100.00
47522;BME280;32291;52.010;4.446;2023-04-23T02:30:16;78037.03;;;-144.67;100.00
47522;BME280;32291;52.010;4.446;2023-04-23T02:31:18;78039.19;;;-144.67;100.00
47522;BME280;32291;52.010;4.446;2023-04-23T02:32:21;78039.19;;;-144.67;100.00
47522;BME280;32291;52.010;4.446;2023-04-23T02:33:22;78045.59;;;-144.67;100.00
47522;BME280;32291;52.010;4.446;2023-04-23T02:34:24;78041.31;;;-144.67;100.00
47522;BME280;32291;52.010;4.446;2023-04-23T02:35:26;78043.47;;;-144.67;100.00
47522;BME280;32291;52.010;4.446;2023-04-23T02:36:28;78047.75;;;-144.67;100.00
47522;BME280;32291;52.010;4.446;2023-04-23T02:37:33;78054.16;;;-144.67;100.00
47522;BME280;32291;52.010;4.446;2023-04-23T02:38:34;78058.44;;;-144.67;100.00
47522;BME280;32291;52.010;4.446;2023-04-23T02:39:36;78056.31;;;-144.67;100.00
47522;BME280;32291;52.010;4.446;2023-04-23T02:40:39;78064.88;;;-144.67;100.00
47522;BME280;32291;52.010;4.446;2023-04-23T02:41:41;78071.31;;;-144.67;100.00
47522;BME280;32291;52.010;4.446;2023-04-23T02:42:43;78062.72;;;-144.67;100.00
47522;BME280;32291;52.010;4.446;2023-04-23T02:43:45;78069.16;;;-144.67;100.00
47522;BME280;32291;52.010;4.446;2023-04-23T02:44:47;78077.72;;;-144.67;100.00
47522;BME280;32291;52.010;4.446;2023-04-23T02:45:49;78077.72;;;-144.67;100.00
47522;BME280;32291;52.010;4.446;2023-04-23T02:46:51;78086.28;;;-144.67;100.00
47522;BME280;32291;52.010;4.446;2023-04-23T02:47:53;78084.16;;;-144.67;100.00
47522;BME280;32291;52.010;4.446;2023-04-23T02:48:55;78090.56;;;-144.67;100.00
47522;BME280;32291;52.010;4.446;2023-04-23T02:49:56;78090.56;;;-144.67;100.00
47522;BME280;32291;52.010;4.446;2023-04-23T02:50:58;78086.28;;;-144.67;100.00
47522;BME280;32291;52.010;4.446;2023-04-23T02:52:00;78090.56;;;-144.67;100.00
47522;BME280;32291;52.010;4.446;2023-04-23T02:53:02;78092.72;;;-144.67;100.00
47522;BME280;32291;52.010;4.446;2023-04-23T02:54:04;78101.28;;;-144.67;100.00
47522;BME280;32291;52.010;4.446;2023-04-23T02:55:07;78099.13;;;-144.67;100.00
47522;BME280;32291;52.010;4.446;2023-04-23T02:56:10;78101.28;;;-144.67;100.00
47522;BME280;32291;52.010;4.446;2023-04-23T02:57:11;78105.56;;;-144.67;100.00
47522;BME280;32291;52.010;4.446;2023-04-23T02:58:15;78105.56;;;-144.67;100.00
47522;BME280;32291;52.010;4.446;2023-04-23T02:59:18;78107.69;;;-144.67;100.00
47522;BME280;32291;52.010;4.446;2023-04-23T03:00:20;78111.97;;;-144.67;100.00
47522;BME280;32291;52.010;4.446;2023-04-23T03:01:22;78111.97;;;-144.67;100.00
47522;BME280;32291;52.010;4.446;2023-04-23T03:02:24;78116.25;;;-144.67;100.00
47522;BME280;32291;52.010;4.446;2023-04-23T03:03:28;78120.53;;;-144.67;100.00
47522;BME280;32291;52.010;4.446;2023-04-23T03:04:32;78124.81;;;-144.67;100.00
47522;BME280;32291;52.010;4.446;2023-04-23T03:05:34;78122.69;;;-144.67;100.00
47522;BME280;32291;52.010;4.446;2023-04-23T03:06:35;78124.81;;;-144.67;100.00
47522;BME280;32291;52.010;4.446;2023-04-23T03:07:37;78129.09;;;-144.67;100.00
47522;BME280;32291;52.010;4.446;2023-04-23T03:08:39;78137.66;;;-144.67;100.00
47522;BME280;32291;52.010;4.446;2023-04-23T03:09:41;78133.38;;;-144.67;100.00
47522;BME280;32291;52.010;4.446;2023-04-23T03:10:43;78131.25;;;-144.67;100.00
47522;BME280;32291;52.010;4.446;2023-04-23T03:11:45;78131.25;;;-144.67;100.00
47522;BME280;32291;52.010;4.446;2023-04-23T03:12:47;78135.53;;;-144.67;100.00
47522;BME280;32291;52.010;4.446;2023-04-23T03:13:49;78131.25;;;-144.67;100.00
47522;BME280;32291;52.010;4.446;2023-04-23T03:14:51;78120.53;;;-144.67;100.00
47522;BME280;32291;52.010;4.446;2023-04-23T03:15:54;78124.81;;;-144.67;100.00
47522;BME280;32291;52.010;4.446;2023-04-23T03:16:56;78120.53;;;-144.67;100.00
47522;BME280;32291;52.010;4.446;2023-04-23T03:17:58;78116.25;;;-144.67;100.00
47522;BME280;32291;52.010;4.446;2023-04-23T03:19:01;78111.97;;;-144.67;100.00
47522;BME280;32291;52.010;4.446;2023-04-23T03:20:04;78105.56;;;-144.67;100.00
47522;BME280;32291;52.010;4.446;2023-04-23T03:21:07;78107.69;;;-144.67;100.00
47522;BME280;32291;52.010;4.446;2023-04-23T03:22:09;78107.69;;;-144.67;100.00
47522;BME280;32291;52.010;4.446;2023-04-23T03:23:11;78094.84;;;-144.67;100.00
47522;BME280;32291;52.010;4.446;2023-04-23T03:24:15;78090.56;;;-144.67;100.00
47522;BME280;32291;52.010;4.446;2023-04-23T03:25:17;78099.13;;;-144.67;100.00
47522;BME280;32291;52.010;4.446;2023-04-23T03:26:20;78094.84;;;-144.67;100.00
47522;BME280;32291;52.010;4.446;2023-04-23T03:27:22;78084.16;;;-144.67;100.00
47522;BME280;32291;52.010;4.446;2023-04-23T03:28:24;78086.28;;;-144.67;100.00
47522;BME280;32291;52.010;4.446;2023-04-23T03:29:26;78082.00;;;-144.67;100.00
47522;BME280;32291;52.010;4.446;2023-04-23T03:30:30;78075.59;;;-144.67;100.00
47522;BME280;32291;52.010;4.446;2023-04-23T03:31:32;78071.31;;;-144.67;100.00
47522;BME280;32291;52.010;4.446;2023-04-23T03:32:35;78075.59;;;-144.67;100.00
47522;BME280;32291;52.010;4.446;2023-04-23T03:33:37;78073.44;;;-144.67;100.00
47522;BME280;32291;52.010;4.446;2023-04-23T03:34:38;78067.03;;;-144.67;100.00
47522;BME280;32291;52.010;4.446;2023-04-23T03:35:40;78069.16;;;-144.67;100.00
47522;BME280;32291;52.010;4.446;2023-04-23T03:36:42;78062.72;;;-144.67;100.00
47522;BME280;32291;52.010;4.446;2023-04-23T03:37:45;78064.88;;;-144.67;100.00
47522;BME280;32291;52.010;4.446;2023-04-23T03:38:47;78062.72;;;-144.67;100.00
47522;BME280;32291;52.010;4.446;2023-04-23T03:39:49;78064.88;;;-144.67;100.00
47522;BME280;32291;52.010;4.446;2023-04-23T03:40:52;78067.03;;;-144.67;100.00
47522;BME280;32291;52.010;4.446;2023-04-23T03:41:54;78058.44;;;-144.67;100.00
47522;BME280;32291;52.010;4.446;2023-04-23T03:42:56;78060.59;;;-144.67;100.00
47522;BME280;32291;52.010;4.446;2023-04-23T03:43:58;78056.31;;;-144.67;100.00
47522;BME280;32291;52.010;4.446;2023-04-23T03:45:00;78056.31;;;-144.67;100.00
47522;BME280;32291;52.010;4.446;2023-04-23T03:46:02;78054.16;;;-144.67;100.00
47522;BME280;32291;52.010;4.446;2023-04-23T03:47:04;78056.31;;;-144.67;100.00
47522;BME280;32291;52.010;4.446;2023-04-23T03:48:05;78054.16;;;-144.67;100.00
47522;BME280;32291;52.010;4.446;2023-04-23T03:49:07;78052.03;;;-144.67;100.00
47522;BME280;32291;52.010;4.446;2023-04-23T03:50:09;78056.31;;;-144.67;100.00
47522;BME280;32291;52.010;4.446;2023-04-23T03:51:13;78056.31;;;-144.67;100.00
47522;BME280;32291;52.010;4.446;2023-04-23T03:52:14;78056.31;;;-144.67;100.00
47522;BME280;32291;52.010;4.446;2023-04-23T03:53:17;78049.88;;;-144.67;100.00
47522;BME280;32291;52.010;4.446;2023-04-23T03:54:18;78054.16;;;-144.67;100.00
47522;BME280;32291;52.010;4.446;2023-04-23T03:55:20;78052.03;;;-144.67;100.00
47522;BME280;32291;52.010;4.446;2023-04-23T03:56:22;78052.03;;;-144.67;100.00
47522;BME280;32291;52.010;4.446;2023-04-23T03:57:24;78056.31;;;-144.67;100.00
47522;BME280;32291;52.010;4.446;2023-04-23T03:58:26;78060.59;;;-144.67;100.00
47522;BME280;32291;52.010;4.446;2023-04-23T03:59:28;78056.31;;;-144.67;100.00
47522;BME280;32291;52.010;4.446;2023-04-23T04:00:30;78062.72;;;-144.67;100.00
47522;BME280;32291;52.010;4.446;2023-04-23T04:01:32;78052.03;;;-144.67;100.00
47522;BME280;32291;52.010;4.446;2023-04-23T04:02:37;78047.75;;;-144.67;100.00
47522;BME280;32291;52.010;4.446;2023-04-23T04:03:39;78043.47;;;-144.67;100.00
47522;BME280;32291;52.010;4.446;2023-04-23T04:04:41;78043.47;;;-144.67;100.00
47522;BME280;32291;52.010;4.446;2023-04-23T04:05:46;78043.47;;;-144.67;100.00
47522;BME280;32291;52.010;4.446;2023-04-23T04:06:47;78043.47;;;-144.67;100.00
47522;BME280;32291;52.010;4.446;2023-04-23T04:07:49;78043.47;;;-144.67;100.00
47522;BME280;32291;52.010;4.446;2023-04-23T04:08:50;78034.91;;;-144.67;100.00
47522;BME280;32291;52.010;4.446;2023-04-23T04:09:52;78030.63;;;-144.67;100.00
47522;BME280;32291;52.010;4.446;2023-04-23T04:10:54;78026.34;;;-144.67;100.00
47522;BME280;32291;52.010;4.446;2023-04-23T04:11:56;78034.91;;;-144.67;100.00
47522;BME280;32291;52.010;4.446;2023-04-23T04:12:58;78026.34;;;-144.67;100.00
47522;BME280;32291;52.010;4.446;2023-04-23T04:14:01;78030.63;;;-144.67;100.00
47522;BME280;32291;52.010;4.446;2023-04-23T04:15:04;78034.91;;;-144.67;100.00
47522;BME280;32291;52.010;4.446;2023-04-23T04:16:06;78032.75;;;-144.67;100.00
47522;BME280;32291;52.010;4.446;2023-04-23T04:17:08;78022.06;;;-144.67;100.00
47522;BME280;32291;52.010;4.446;2023-04-23T04:18:10;78017.78;;;-144.67;100.00
47522;BME280;32291;52.010;4.446;2023-04-23T04:19:11;78019.91;;;-144.67;100.00
47522;BME280;32291;52.010;4.446;2023-04-23T04:20:13;78024.19;;;-144.67;100.00
47522;BME280;32291;52.010;4.446;2023-04-23T04:21:15;78017.78;;;-144.67;100.00
47522;BME280;32291;52.010;4.446;2023-04-23T04:22:17;78019.91;;;-144.67;100.00
47522;BME280;32291;52.010;4.446;2023-04-23T04:23:19;78013.50;;;-144.67;100.00
47522;BME280;32291;52.010;4.446;2023-04-23T04:24:21;78009.22;;;-144.67;100.00
47522;BME280;32291;52.010;4.446;2023-04-23T04:25:25;78004.94;;;-144.67;100.00
47522;BME280;32291;52.010;4.446;2023-04-23T04:26:30;78004.94;;;-144.67;100.00
47522;BME280;32291;52.010;4.446;2023-04-23T04:27:35;78009.22;;;-144.67;100.00
47522;BME280;32291;52.010;4.446;2023-04-23T04:28:37;78009.22;;;-144.67;100.00
47522;BME280;32291;52.010;4.446;2023-04-23T04:29:40;78017.78;;;-144.67;100.00
47522;BME280;32291;52.010;4.446;2023-04-23T04:30:41;78017.78;;;-144.67;100.00
47522;BME280;32291;52.010;4.446;2023-04-23T04:31:43;78017.78;;;-144.67;100.00
47522;BME280;32291;52.010;4.446;2023-04-23T04:32:45;78013.50;;;-144.67;100.00
47522;BME280;32291;52.010;4.446;2023-04-23T04:33:47;78013.50;;;-144.67;100.00
47522;BME280;32291;52.010;4.446;2023-04-23T04:34:49;78007.06;;;-144.67;100.00
47522;BME280;32291;52.010;4.446;2023-04-23T04:35:51;78009.22;;;-144.67;100.00
47522;BME280;32291;52.010;4.446;2023-04-23T04:36:53;78009.22;;;-144.67;100.00
47522;BME280;32291;52.010;4.446;2023-04-23T04:37:55;78011.34;;;-144.67;100.00
47522;BME280;32291;52.010;4.446;2023-04-23T04:38:56;78022.06;;;-144.67;100.00
47522;BME280;32291;52.010;4.446;2023-04-23T04:40:01;78017.78;;;-144.67;100.00
47522;BME280;32291;52.010;4.446;2023-04-23T04:41:05;78028.47;;;-144.67;100.00
47522;BME280;32291;52.010;4.446;2023-04-23T04:42:07;78030.63;;;-144.67;100.00
47522;BME280;32291;52.010;4.446;2023-04-23T04:43:09;78034.91;;;-144.67;100.00
47522;BME280;32291;52.010;4.446;2023-04-23T04:44:11;78045.59;;;-144.67;100.00
47522;BME280;32291;52.010;4.446;2023-04-23T04:45:14;78047.75;;;-144.67;100.00
47522;BME280;32291;52.010;4.446;2023-04-23T04:46:17;78043.47;;;-144.67;100.00
47522;BME280;32291;52.010;4.446;2023-04-23T04:47:22;78045.59;;;-144.67;100.00
47522;BME280;32291;52.010;4.446;2023-04-23T04:48:24;78049.88;;;-144.67;100.00
47522;BME280;32291;52.010;4.446;2023-04-23T04:49:26;78049.88;;;-144.67;100.00
47522;BME280;32291;52.010;4.446;2023-04-23T04:50:28;78049.88;;;-144.67;100.00
47522;BME280;32291;52.010;4.446;2023-04-23T04:51:30;78052.03;;;-144.67;100.00
47522;BME280;32291;52.010;4.446;2023-04-23T04:52:32;78054.16;;;-144.67;100.00
47522;BME280;32291;52.010;4.446;2023-04-23T04:53:34;78056.31;;;-144.67;100.00
47522;BME280;32291;52.010;4.446;2023-04-23T04:54:36;78060.59;;;-144.67;100.00
47522;BME280;32291;52.010;4.446;2023-04-23T04:55:38;78067.03;;;-144.67;100.00
47522;BME280;32291;52.010;4.446;2023-04-23T04:56:40;78067.03;;;-144.67;100.00
47522;BME280;32291;52.010;4.446;2023-04-23T04:57:41;78062.72;;;-144.67;100.00
47522;BME280;32291;52.010;4.446;2023-04-23T04:58:43;78056.31;;;-144.67;100.00
47522;BME280;32291;52.010;4.446;2023-04-23T04:59:45;78058.44;;;-144.67;100.00
47522;BME280;32291;52.010;4.446;2023-04-23T05:00:47;78056.31;;;-144.67;100.00
47522;BME280;32291;52.010;4.446;2023-04-23T05:01:52;78049.88;;;-144.67;100.00
47522;BME280;32291;52.010;4.446;2023-04-23T05:02:57;78043.47;;;-144.67;100.00
47522;BME280;32291;52.010;4.446;2023-04-23T05:03:59;78039.19;;;-144.67;100.00
47522;BME280;32291;52.010;4.446;2023-04-23T05:05:01;78039.19;;;-144.67;100.00
47522;BME280;32291;52.010;4.446;2023-04-23T05:06:03;78028.47;;;-144.67;100.00
47522;BME280;32291;52.010;4.446;2023-04-23T05:07:04;78026.34;;;-144.67;100.00
47522;BME280;32291;52.010;4.446;2023-04-23T05:08:06;78026.34;;;-144.67;100.00
47522;BME280;32291;52.010;4.446;2023-04-23T05:09:09;78019.91;;;-144.67;100.00
47522;BME280;32291;52.010;4.446;2023-04-23T05:10:12;78022.06;;;-144.67;100.00
47522;BME280;32291;52.010;4.446;2023-04-23T05:11:17;78022.06;;;-144.67;100.00
47522;BME280;32291;52.010;4.446;2023-04-23T05:12:18;78015.63;;;-144.67;100.00
47522;BME280;32291;52.010;4.446;2023-04-23T05:13:21;78019.91;;;-144.67;100.00
47522;BME280;32291;52.010;4.446;2023-04-23T05:14:23;78022.06;;;-144.67;100.00
47522;BME280;32291;52.010;4.446;2023-04-23T05:15:27;78017.78;;;-144.67;100.00
47522;BME280;32291;52.010;4.446;2023-04-23T05:16:29;78026.34;;;-144.67;100.00
47522;BME280;32291;52.010;4.446;2023-04-23T05:17:31;78024.19;;;-144.67;100.00
47522;BME280;32291;52.010;4.446;2023-04-23T05:18:33;78030.63;;;-144.67;100.00
47522;BME280;32291;52.010;4.446;2023-04-23T05:19:35;78034.91;;;-144.67;100.00